Terminal Aerodrome Forecast
Issued by NWS

Home | Current Version | Previous Version | Text Only | Print | Product List | Glossary On
Versions: 1 2 3 4 5 6 7 8 9 10 11 12 13 14
000
FTUS43 KILX 310800 AAA
TAFBMI
TAF AMD
KBMI 310820Z 3108/0106 29007KT P6SM VCSH BKN040
     FM311100 34015KT P6SM VCSH BKN040
     FM311400 34020G30KT P6SM BKN035
     FM312000 35022G32KT P6SM SCT030
     FM010100 34014KT P6SM SKC=

USA.gov is the U.S. government's official web portal to all federal, state and local government web resources and services.